sensor_id;sensor_type;location;lat;lon;timestamp;pressure;altitude;pressure_sealevel;temperature;humidity
64886;BME280;51514;52.206;5.114;2022-09-03T00:00:16;101193.78;;;19.51;43.89
64886;BME280;51514;52.206;5.114;2022-09-03T00:03:12;101196.91;;;19.48;43.97
64886;BME280;51514;52.206;5.114;2022-09-03T00:05:42;101200.72;;;19.47;43.82
64886;BME280;51514;52.206;5.114;2022-09-03T00:11:07;101185.97;;;19.41;44.21
64886;BME280;51514;52.206;5.114;2022-09-03T00:13:44;101188.06;;;19.39;44.18
64886;BME280;51514;52.206;5.114;2022-09-03T00:16:13;101188.06;;;19.39;44.32
64886;BME280;51514;52.206;5.114;2022-09-03T00:18:46;101192.88;;;19.37;44.57
64886;BME280;51514;52.206;5.114;2022-09-03T00:21:17;101191.84;;;19.31;44.32
64886;BME280;51514;52.206;5.114;2022-09-03T00:23:47;101186.78;;;19.28;44.31
64886;BME280;51514;52.206;5.114;2022-09-03T00:28:53;101184.88;;;19.22;44.72
64886;BME280;51514;52.206;5.114;2022-09-03T00:31:28;101192.44;;;19.14;44.62
64886;BME280;51514;52.206;5.114;2022-09-03T00:33:58;101181.47;;;19.07;45.15
64886;BME280;51514;52.206;5.114;2022-09-03T00:36:41;101179.78;;;19.06;45.04
64886;BME280;51514;52.206;5.114;2022-09-03T00:39:19;101178.09;;;18.99;45.31
64886;BME280;51514;52.206;5.114;2022-09-03T00:45:02;101170.72;;;18.92;45.40
64886;BME280;51514;52.206;5.114;2022-09-03T00:50:39;101172.56;;;18.85;45.54
64886;BME280;51514;52.206;5.114;2022-09-03T00:53:35;101166.06;;;18.86;45.56
64886;BME280;51514;52.206;5.114;2022-09-03T00:56:50;101173.84;;;18.89;45.53
64886;BME280;51514;52.206;5.114;2022-09-03T01:01:35;101173.84;;;18.89;45.58
64886;BME280;51514;52.206;5.114;2022-09-03T01:07:12;101174.91;;;18.88;45.52
64886;BME280;51514;52.206;5.114;2022-09-03T01:10:05;101178.69;;;18.87;45.58
64886;BME280;51514;52.206;5.114;2022-09-03T01:12:51;101175.94;;;18.81;45.73
64886;BME280;51514;52.206;5.114;2022-09-03T01:18:33;101178.44;;;18.82;45.98
64886;BME280;51514;52.206;5.114;2022-09-03T01:27:02;101179.13;;;18.91;45.81
64886;BME280;51514;52.206;5.114;2022-09-03T01:29:46;101182.91;;;18.90;45.92
64886;BME280;51514;52.206;5.114;2022-09-03T01:32:21;101182.91;;;18.90;45.66
64886;BME280;51514;52.206;5.114;2022-09-03T01:40:53;101185.81;;;18.82;45.91
64886;BME280;51514;52.206;5.114;2022-09-03T01:43:30;101188.13;;;18.85;46.05
64886;BME280;51514;52.206;5.114;2022-09-03T01:46:12;101195.91;;;18.81;45.90
64886;BME280;51514;52.206;5.114;2022-09-03T01:51:40;101187.91;;;18.80;45.96
64886;BME280;51514;52.206;5.114;2022-09-03T01:58:04;101185.56;;;18.77;45.95
64886;BME280;51514;52.206;5.114;2022-09-03T02:00:11;101183.25;;;18.74;46.15
64886;BME280;51514;52.206;5.114;2022-09-03T02:02:39;101185.56;;;18.77;46.17
64886;BME280;51514;52.206;5.114;2022-09-03T02:07:48;101190.84;;;18.78;46.18
64886;BME280;51514;52.206;5.114;2022-09-03T02:10:25;101179.88;;;18.72;46.08
64886;BME280;51514;52.206;5.114;2022-09-03T02:12:58;101182.84;;;18.77;46.21
64886;BME280;51514;52.206;5.114;2022-09-03T02:15:25;101181.41;;;18.81;46.11
64886;BME280;51514;52.206;5.114;2022-09-03T02:17:54;101177.59;;;18.75;46.08
64886;BME280;51514;52.206;5.114;2022-09-03T02:20:25;101172.94;;;18.69;46.15
64886;BME280;51514;52.206;5.114;2022-09-03T02:22:51;101168.72;;;18.67;46.31
64886;BME280;51514;52.206;5.114;2022-09-03T02:25:19;101172.50;;;18.66;46.18
64886;BME280;51514;52.206;5.114;2022-09-03T02:27:47;101171.00;;;18.63;46.50
64886;BME280;51514;52.206;5.114;2022-09-03T02:30:13;101179.00;;;18.65;46.56
64886;BME280;51514;52.206;5.114;2022-09-03T02:32:39;101184.28;;;18.66;46.36
64886;BME280;51514;52.206;5.114;2022-09-03T02:35:05;101183.59;;;18.57;46.58
64886;BME280;51514;52.206;5.114;2022-09-03T02:37:30;101174.72;;;18.49;46.73
64886;BME280;51514;52.206;5.114;2022-09-03T02:39:56;101173.03;;;18.48;46.58
64886;BME280;51514;52.206;5.114;2022-09-03T02:42:22;101179.09;;;18.43;47.07
64886;BME280;51514;52.206;5.114;2022-09-03T02:44:51;101179.69;;;18.39;47.04
64886;BME280;51514;52.206;5.114;2022-09-03T02:47:17;101170.41;;;18.33;47.06
64886;BME280;51514;52.206;5.114;2022-09-03T02:49:47;101167.44;;;18.28;47.32
64886;BME280;51514;52.206;5.114;2022-09-03T02:52:13;101174.59;;;18.29;47.39
64886;BME280;51514;52.206;5.114;2022-09-03T02:54:39;101169.97;;;18.30;47.19
64886;BME280;51514;52.206;5.114;2022-09-03T02:57:09;101173.72;;;18.22;47.57
64886;BME280;51514;52.206;5.114;2022-09-03T02:59:35;101167.38;;;18.15;47.54
64886;BME280;51514;52.206;5.114;2022-09-03T03:02:02;101159.59;;;18.12;47.59
64886;BME280;51514;52.206;5.114;2022-09-03T03:04:29;101159.78;;;18.10;47.69
64886;BME280;51514;52.206;5.114;2022-09-03T03:06:54;101160.78;;;18.03;48.08
64886;BME280;51514;52.206;5.114;2022-09-03T03:09:20;101165.00;;;18.05;47.86
64886;BME280;51514;52.206;5.114;2022-09-03T03:11:45;101162.47;;;18.04;48.09
64886;BME280;51514;52.206;5.114;2022-09-03T03:14:11;101164.75;;;18.00;48.04
64886;BME280;51514;52.206;5.114;2022-09-03T03:16:36;101154.28;;;18.04;48.03
64886;BME280;51514;52.206;5.114;2022-09-03T03:19:01;101159.31;;;18.07;47.82
64886;BME280;51514;52.206;5.114;2022-09-03T03:21:27;101160.59;;;18.04;47.98
64886;BME280;51514;52.206;5.114;2022-09-03T03:23:53;101158.25;;;18.01;47.91
64886;BME280;51514;52.206;5.114;2022-09-03T03:26:19;101152.59;;;18.03;48.16
64886;BME280;51514;52.206;5.114;2022-09-03T03:28:46;101154.03;;;17.99;48.04
64886;BME280;51514;52.206;5.114;2022-09-03T03:31:15;101156.38;;;18.02;47.99
64886;BME280;51514;52.206;5.114;2022-09-03T03:33:41;101156.38;;;18.02;48.05
64886;BME280;51514;52.206;5.114;2022-09-03T03:36:12;101155.56;;;18.08;47.98
64886;BME280;51514;52.206;5.114;2022-09-03T03:38:38;101157.66;;;18.06;48.23
64886;BME280;51514;52.206;5.114;2022-09-03T03:41:11;101156.59;;;18.07;47.91
64886;BME280;51514;52.206;5.114;2022-09-03T03:43:37;101165.41;;;18.02;48.10
64886;BME280;51514;52.206;5.114;2022-09-03T03:46:02;101174.03;;;18.06;48.10
64886;BME280;51514;52.206;5.114;2022-09-03T03:48:29;101163.31;;;18.04;48.26
64886;BME280;51514;52.206;5.114;2022-09-03T03:50:54;101159.50;;;17.99;48.31
64886;BME280;51514;52.206;5.114;2022-09-03T03:53:19;101161.72;;;17.88;48.53
64886;BME280;51514;52.206;5.114;2022-09-03T03:55:55;101166.53;;;17.86;48.72
64886;BME280;51514;52.206;5.114;2022-09-03T03:58:21;101165.50;;;17.87;48.44
64886;BME280;51514;52.206;5.114;2022-09-03T04:00:47;101151.44;;;17.84;48.22
64886;BME280;51514;52.206;5.114;2022-09-03T04:03:13;101158.78;;;17.83;48.48
64886;BME280;51514;52.206;5.114;2022-09-03T04:05:38;101159.16;;;17.80;48.54
64886;BME280;51514;52.206;5.114;2022-09-03T04:08:04;101166.69;;;17.78;48.58
64886;BME280;51514;52.206;5.114;2022-09-03T04:10:30;101163.13;;;17.78;48.75
64886;BME280;51514;52.206;5.114;2022-09-03T04:12:55;101165.84;;;17.78;48.85
64886;BME280;51514;52.206;5.114;2022-09-03T04:15:20;101155.41;;;17.81;48.65
64886;BME280;51514;52.206;5.114;2022-09-03T04:17:45;101157.84;;;17.76;48.63
64886;BME280;51514;52.206;5.114;2022-09-03T04:20:11;101155.75;;;17.72;48.63
64886;BME280;51514;52.206;5.114;2022-09-03T04:22:36;101156.31;;;17.67;48.85
64886;BME280;51514;52.206;5.114;2022-09-03T04:25:01;101151.53;;;17.69;49.03
64886;BME280;51514;52.206;5.114;2022-09-03T04:27:27;101153.53;;;17.61;48.98
64886;BME280;51514;52.206;5.114;2022-09-03T04:29:52;101142.16;;;17.57;49.24
64886;BME280;51514;52.206;5.114;2022-09-03T04:32:17;101147.59;;;17.57;49.12
64886;BME280;51514;52.206;5.114;2022-09-03T04:35:01;101147.81;;;17.56;48.95
64886;BME280;51514;52.206;5.114;2022-09-03T04:37:27;101148.44;;;17.58;49.11
64886;BME280;51514;52.206;5.114;2022-09-03T04:39:52;101150.03;;;17.45;49.40
64886;BME280;51514;52.206;5.114;2022-09-03T04:42:18;101152.56;;;17.47;49.62
64886;BME280;51514;52.206;5.114;2022-09-03T04:44:43;101149.69;;;17.55;49.39
64886;BME280;51514;52.206;5.114;2022-09-03T04:47:09;101160.22;;;17.58;49.38
64886;BME280;51514;52.206;5.114;2022-09-03T04:49:34;101154.22;;;17.63;48.74
64886;BME280;51514;52.206;5.114;2022-09-03T04:52:01;101153.72;;;17.59;49.36
64886;BME280;51514;52.206;5.114;2022-09-03T04:54:27;101149.63;;;17.48;49.46
64886;BME280;51514;52.206;5.114;2022-09-03T04:56:52;101155.47;;;17.45;49.43
64886;BME280;51514;52.206;5.114;2022-09-03T04:59:18;101152.28;;;17.42;49.78
64886;BME280;51514;52.206;5.114;2022-09-03T05:01:43;101146.97;;;17.34;50.21
64886;BME280;51514;52.206;5.114;2022-09-03T05:04:08;101154.91;;;17.29;49.88
64886;BME280;51514;52.206;5.114;2022-09-03T05:06:34;101150.63;;;17.20;50.22
64886;BME280;51514;52.206;5.114;2022-09-03T05:09:01;101151.41;;;17.13;50.35
64886;BME280;51514;52.206;5.114;2022-09-03T05:11:27;101148.53;;;17.22;50.33
64886;BME280;51514;52.206;5.114;2022-09-03T05:13:55;101150.38;;;17.14;50.50
64886;BME280;51514;52.206;5.114;2022-09-03T05:16:22;101146.59;;;17.15;50.49
64886;BME280;51514;52.206;5.114;2022-09-03T05:18:51;101147.25;;;17.18;50.41
64886;BME280;51514;52.206;5.114;2022-09-03T05:21:18;101153.94;;;17.15;50.61
64886;BME280;51514;52.206;5.114;2022-09-03T05:23:45;101150.81;;;17.18;50.27
64886;BME280;51514;52.206;5.114;2022-09-03T05:26:16;101151.03;;;17.17;50.43
64886;BME280;51514;52.206;5.114;2022-09-03T05:28:43;101153.97;;;17.22;50.42
64886;BME280;51514;52.206;5.114;2022-09-03T05:31:10;101145.44;;;17.25;50.31
64886;BME280;51514;52.206;5.114;2022-09-03T05:33:38;101153.34;;;17.20;50.57
64886;BME280;51514;52.206;5.114;2022-09-03T05:36:06;101147.25;;;17.18;50.68
64886;BME280;51514;52.206;5.114;2022-09-03T05:38:32;101148.94;;;17.19;50.63
64886;BME280;51514;52.206;5.114;2022-09-03T05:40:59;101148.34;;;17.23;50.52
64886;BME280;51514;52.206;5.114;2022-09-03T05:43:26;101150.69;;;17.26;50.58
64886;BME280;51514;52.206;5.114;2022-09-03T05:45:56;101152.94;;;17.23;50.61
64886;BME280;51514;52.206;5.114;2022-09-03T05:48:22;101146.00;;;17.20;50.65
64886;BME280;51514;52.206;5.114;2022-09-03T05:50:47;101145.44;;;17.25;50.63
64886;BME280;51514;52.206;5.114;2022-09-03T05:53:13;101148.16;;;17.25;50.77
64886;BME280;51514;52.206;5.114;2022-09-03T05:55:39;101153.22;;;17.28;50.57
64886;BME280;51514;52.206;5.114;2022-09-03T05:58:04;101144.59;;;17.24;50.76
64886;BME280;51514;52.206;5.114;2022-09-03T06:00:29;101146.47;;;17.24;50.98
64886;BME280;51514;52.206;5.114;2022-09-03T06:02:54;101152.56;;;17.26;50.72
64886;BME280;51514;52.206;5.114;2022-09-03T06:05:20;101149.91;;;17.32;50.98
64886;BME280;51514;52.206;5.114;2022-09-03T06:07:45;101153.34;;;17.41;51.05
64886;BME280;51514;52.206;5.114;2022-09-03T06:10:17;101155.47;;;17.45;50.78
64886;BME280;51514;52.206;5.114;2022-09-03T06:12:43;101153.34;;;17.41;50.80
64886;BME280;51514;52.206;5.114;2022-09-03T06:15:13;101153.34;;;17.41;50.86
64886;BME280;51514;52.206;5.114;2022-09-03T06:17:38;101154.91;;;17.50;50.92
64886;BME280;51514;52.206;5.114;2022-09-03T06:20:04;101148.66;;;17.56;50.87
64886;BME280;51514;52.206;5.114;2022-09-03T06:22:29;101144.69;;;17.59;50.79
64886;BME280;51514;52.206;5.114;2022-09-03T06:24:55;101150.41;;;17.64;50.97
64886;BME280;51514;52.206;5.114;2022-09-03T06:27:20;101154.91;;;17.71;50.84
64886;BME280;51514;52.206;5.114;2022-09-03T06:29:46;101152.00;;;17.79;50.64
64886;BME280;51514;52.206;5.114;2022-09-03T06:32:12;101148.91;;;17.82;50.13
64886;BME280;51514;52.206;5.114;2022-09-03T06:34:38;101155.44;;;17.88;50.00
64886;BME280;51514;52.206;5.114;2022-09-03T06:37:03;101150.44;;;17.92;50.08
64886;BME280;51514;52.206;5.114;2022-09-03T06:39:29;101153.19;;;17.98;50.29
64886;BME280;51514;52.206;5.114;2022-09-03T06:41:54;101159.94;;;18.02;49.99
64886;BME280;51514;52.206;5.114;2022-09-03T06:44:20;101161.84;;;18.02;49.40
64886;BME280;51514;52.206;5.114;2022-09-03T06:46:45;101159.97;;;18.09;50.52
64886;BME280;51514;52.206;5.114;2022-09-03T06:49:11;101160.66;;;18.17;49.84
64886;BME280;51514;52.206;5.114;2022-09-03T06:51:37;101159.66;;;18.25;49.80
64886;BME280;51514;52.206;5.114;2022-09-03T06:54:07;101156.97;;;18.32;49.38
64886;BME280;51514;52.206;5.114;2022-09-03T06:56:34;101169.59;;;18.39;49.36
64886;BME280;51514;52.206;5.114;2022-09-03T06:59:04;101169.44;;;18.47;49.26
64886;BME280;51514;52.206;5.114;2022-09-03T07:01:31;101172.41;;;18.52;49.01
64886;BME280;51514;52.206;5.114;2022-09-03T07:04:01;101164.50;;;18.64;48.87
64886;BME280;51514;52.206;5.114;2022-09-03T07:06:32;101164.38;;;18.79;48.85
64886;BME280;51514;52.206;5.114;2022-09-03T07:09:01;101171.97;;;18.90;48.45
64886;BME280;51514;52.206;5.114;2022-09-03T07:11:28;101168.63;;;19.01;48.63
64886;BME280;51514;52.206;5.114;2022-09-03T07:13:56;101168.69;;;19.14;48.93
64886;BME280;51514;52.206;5.114;2022-09-03T07:16:25;101173.75;;;19.24;48.40
64886;BME280;51514;52.206;5.114;2022-09-03T07:18:52;101175.03;;;19.35;47.98
64886;BME280;51514;52.206;5.114;2022-09-03T07:21:19;101172.50;;;19.40;47.93
64886;BME280;51514;52.206;5.114;2022-09-03T07:23:45;101172.94;;;19.50;47.63
64886;BME280;51514;52.206;5.114;2022-09-03T07:26:32;101170.84;;;19.52;47.60
64886;BME280;51514;52.206;5.114;2022-09-03T07:28:58;101162.44;;;19.60;47.41
64886;BME280;51514;52.206;5.114;2022-09-03T07:31:29;101166.88;;;19.67;47.15
64886;BME280;51514;52.206;5.114;2022-09-03T07:34:07;101164.75;;;19.76;47.46
64886;BME280;51514;52.206;5.114;2022-09-03T07:36:39;101167.69;;;19.81;47.52
64886;BME280;51514;52.206;5.114;2022-09-03T07:39:09;101170.00;;;19.91;46.79
64886;BME280;51514;52.206;5.114;2022-09-03T07:41:35;101165.78;;;20.01;46.86
64886;BME280;51514;52.206;5.114;2022-09-03T07:44:01;101171.03;;;20.16;47.00
64886;BME280;51514;52.206;5.114;2022-09-03T07:46:31;101168.25;;;20.29;47.12
64886;BME280;51514;52.206;5.114;2022-09-03T07:48:59;101171.63;;;20.38;46.38
64886;BME280;51514;52.206;5.114;2022-09-03T07:51:28;101177.72;;;20.47;45.95
64886;BME280;51514;52.206;5.114;2022-09-03T07:53:57;101178.31;;;20.55;46.05
64886;BME280;51514;52.206;5.114;2022-09-03T07:56:23;101178.94;;;20.64;46.57
64886;BME280;51514;52.206;5.114;2022-09-03T07:58:49;101179.53;;;20.72;45.58
64886;BME280;51514;52.206;5.114;2022-09-03T08:01:16;101175.31;;;20.76;45.36
64886;BME280;51514;52.206;5.114;2022-09-03T08:03:44;101179.25;;;20.87;45.31
64886;BME280;51514;52.206;5.114;2022-09-03T08:06:10;101180.06;;;20.94;45.24
64886;BME280;51514;52.206;5.114;2022-09-03T08:08:36;101182.31;;;21.04;45.84
64886;BME280;51514;52.206;5.114;2022-09-03T08:11:03;101183.56;;;21.08;45.29
64886;BME280;51514;52.206;5.114;2022-09-03T08:16:05;101176.75;;;21.24;45.10
64886;BME280;51514;52.206;5.114;2022-09-03T08:18:33;101188.06;;;21.34;45.02
64886;BME280;51514;52.206;5.114;2022-09-03T08:21:03;101185.91;;;21.42;44.76
64886;BME280;51514;52.206;5.114;2022-09-03T08:23:31;101185.91;;;21.42;44.52
64886;BME280;51514;52.206;5.114;2022-09-03T08:26:00;101187.34;;;21.52;45.10
64886;BME280;51514;52.206;5.114;2022-09-03T08:28:26;101186.22;;;21.59;44.80
64886;BME280;51514;52.206;5.114;2022-09-03T08:30:52;101182.53;;;21.72;44.31
64886;BME280;51514;52.206;5.114;2022-09-03T08:33:17;101187.28;;;21.83;43.64
64886;BME280;51514;52.206;5.114;2022-09-03T08:36:02;101186.94;;;21.98;44.09
64886;BME280;51514;52.206;5.114;2022-09-03T08:38:31;101184.31;;;22.09;42.83
64886;BME280;51514;52.206;5.114;2022-09-03T08:41:07;101184.72;;;22.13;43.07
64886;BME280;51514;52.206;5.114;2022-09-03T08:43:52;101193.06;;;22.25;43.50
64886;BME280;51514;52.206;5.114;2022-09-03T08:46:24;101195.66;;;22.38;42.02
64886;BME280;51514;52.206;5.114;2022-09-03T08:48:52;101193.22;;;22.48;42.16
64886;BME280;51514;52.206;5.114;2022-09-03T08:51:21;101190.56;;;22.60;42.48
64886;BME280;51514;52.206;5.114;2022-09-03T08:53:52;101184.28;;;22.71;42.21
64886;BME280;51514;52.206;5.114;2022-09-03T08:56:29;101191.09;;;22.86;42.95
64886;BME280;51514;52.206;5.114;2022-09-03T08:58:55;101189.47;;;22.97;42.64
64886;BME280;51514;52.206;5.114;2022-09-03T09:01:41;101184.63;;;23.11;41.74
64886;BME280;51514;52.206;5.114;2022-09-03T09:04:17;101186.13;;;23.25;41.01
64886;BME280;51514;52.206;5.114;2022-09-03T09:09:46;101185.09;;;23.49;41.59
64886;BME280;51514;52.206;5.114;2022-09-03T09:17:44;101185.56;;;23.88;40.86
64886;BME280;51514;52.206;5.114;2022-09-03T09:20:27;101181.63;;;23.95;38.92
64886;BME280;51514;52.206;5.114;2022-09-03T09:23:04;101180.06;;;24.11;39.18
64886;BME280;51514;52.206;5.114;2022-09-03T09:25:31;101193.84;;;24.23;40.33
64886;BME280;51514;52.206;5.114;2022-09-03T09:28:02;101183.31;;;24.31;39.61
64886;BME280;51514;52.206;5.114;2022-09-03T09:30:29;101182.47;;;24.43;39.26
64886;BME280;51514;52.206;5.114;2022-09-03T09:32:55;101181.72;;;24.47;38.09
64886;BME280;51514;52.206;5.114;2022-09-03T09:35:21;101178.59;;;24.55;39.31
64886;BME280;51514;52.206;5.114;2022-09-03T09:37:56;101175.56;;;24.68;38.77
64886;BME280;51514;52.206;5.114;2022-09-03T09:40:32;101172.28;;;24.83;37.89
64886;BME280;51514;52.206;5.114;2022-09-03T09:43:16;101167.94;;;24.99;37.93
64886;BME280;51514;52.206;5.114;2022-09-03T09:45:45;101172.25;;;25.06;38.17
64886;BME280;51514;52.206;5.114;2022-09-03T09:48:21;101170.91;;;25.09;38.34
64886;BME280;51514;52.206;5.114;2022-09-03T09:50:47;101179.28;;;25.14;37.57
64886;BME280;51514;52.206;5.114;2022-09-03T09:53:16;101173.34;;;25.22;38.04
64886;BME280;51514;52.206;5.114;2022-09-03T09:55:56;101176.56;;;25.31;36.31
64886;BME280;51514;52.206;5.114;2022-09-03T09:58:24;101176.84;;;25.46;36.95
64886;BME280;51514;52.206;5.114;2022-09-03T10:00:54;101178.03;;;25.50;36.51
64886;BME280;51514;52.206;5.114;2022-09-03T10:03:20;101181.94;;;25.54;35.82
64886;BME280;51514;52.206;5.114;2022-09-03T10:06:07;101165.25;;;25.61;35.91
64886;BME280;51514;52.206;5.114;2022-09-03T10:09:11;101167.69;;;25.74;36.61
64886;BME280;51514;52.206;5.114;2022-09-03T10:11:41;101171.72;;;25.83;36.79
64886;BME280;51514;52.206;5.114;2022-09-03T10:14:16;101170.03;;;25.82;35.92
64886;BME280;51514;52.206;5.114;2022-09-03T10:16:45;101175.38;;;25.89;35.95
64886;BME280;51514;52.206;5.114;2022-09-03T10:19:23;101171.63;;;25.95;36.23
64886;BME280;51514;52.206;5.114;2022-09-03T10:22:04;101167.66;;;26.07;35.37
64886;BME280;51514;52.206;5.114;2022-09-03T10:27:17;101161.97;;;26.14;36.06
64886;BME280;51514;52.206;5.114;2022-09-03T10:29:43;101159.94;;;26.26;35.14
64886;BME280;51514;52.206;5.114;2022-09-03T10:32:36;101158.41;;;26.35;35.57
64886;BME280;51514;52.206;5.114;2022-09-03T10:37:43;101152.94;;;26.62;35.90
64886;BME280;51514;52.206;5.114;2022-09-03T10:40:35;101158.31;;;26.69;34.25
64886;BME280;51514;52.206;5.114;2022-09-03T10:46:14;101152.41;;;26.60;34.09
64886;BME280;51514;52.206;5.114;2022-09-03T10:52:11;101139.31;;;26.77;33.88
64886;BME280;51514;52.206;5.114;2022-09-03T10:55:20;101147.94;;;26.81;33.20
64886;BME280;51514;52.206;5.114;2022-09-03T11:00:29;101138.69;;;26.92;33.42
64886;BME280;51514;52.206;5.114;2022-09-03T11:06:38;101139.34;;;27.04;34.16
64886;BME280;51514;52.206;5.114;2022-09-03T11:09:12;101137.25;;;27.16;33.25
64886;BME280;51514;52.206;5.114;2022-09-03T11:11:46;101146.22;;;27.23;33.13
64886;BME280;51514;52.206;5.114;2022-09-03T11:14:15;101143.53;;;27.34;32.92
64886;BME280;51514;52.206;5.114;2022-09-03T11:16:53;101151.84;;;27.34;32.86
64886;BME280;51514;52.206;5.114;2022-09-03T11:19:27;101142.13;;;27.31;33.82
64886;BME280;51514;52.206;5.114;2022-09-03T11:21:57;101135.06;;;27.45;34.37
64886;BME280;51514;52.206;5.114;2022-09-03T11:24:25;101130.47;;;27.56;33.65
64886;BME280;51514;52.206;5.114;2022-09-03T11:26:56;101131.09;;;27.63;33.93
64886;BME280;51514;52.206;5.114;2022-09-03T11:29:44;101125.09;;;27.76;34.18
64886;BME280;51514;52.206;5.114;2022-09-03T11:32:15;101127.34;;;27.79;32.18
64886;BME280;51514;52.206;5.114;2022-09-03T11:34:51;101117.34;;;27.78;31.98
64886;BME280;51514;52.206;5.114;2022-09-03T11:37:26;101123.09;;;27.72;32.67
64886;BME280;51514;52.206;5.114;2022-09-03T11:40:15;101122.28;;;27.71;32.92
64886;BME280;51514;52.206;5.114;2022-09-03T11:42:44;101110.66;;;27.74;33.40
64886;BME280;51514;52.206;5.114;2022-09-03T11:47:54;101117.69;;;27.92;32.21
64886;BME280;51514;52.206;5.114;2022-09-03T11:53:05;101117.03;;;28.12;32.98
64886;BME280;51514;52.206;5.114;2022-09-03T11:55:43;101114.06;;;28.28;33.62
64886;BME280;51514;52.206;5.114;2022-09-03T11:58:21;101118.53;;;28.29;32.65
64886;BME280;51514;52.206;5.114;2022-09-03T12:00:48;101114.38;;;28.32;32.61
64886;BME280;51514;52.206;5.114;2022-09-03T12:03:20;101121.59;;;28.38;33.60
64886;BME280;51514;52.206;5.114;2022-09-03T12:09:36;101124.38;;;28.38;32.86
64886;BME280;51514;52.206;5.114;2022-09-03T12:14:38;101111.16;;;28.55;32.60
64886;BME280;51514;52.206;5.114;2022-09-03T12:17:17;101122.22;;;28.50;32.69
64886;BME280;51514;52.206;5.114;2022-09-03T12:19:52;101123.63;;;28.53;33.42
64886;BME280;51514;52.206;5.114;2022-09-03T12:22:20;101118.66;;;28.55;32.79
64886;BME280;51514;52.206;5.114;2022-09-03T12:24:46;101124.47;;;28.53;33.06
64886;BME280;51514;52.206;5.114;2022-09-03T12:27:21;101120.00;;;28.52;33.22
64886;BME280;51514;52.206;5.114;2022-09-03T12:30:01;101122.78;;;28.52;33.14
64886;BME280;51514;52.206;5.114;2022-09-03T12:32:31;101123.59;;;28.48;34.23
64886;BME280;51514;52.206;5.114;2022-09-03T12:35:16;101122.75;;;28.42;32.33
64886;BME280;51514;52.206;5.114;2022-09-03T12:37:43;101125.25;;;28.49;32.98
64886;BME280;51514;52.206;5.114;2022-09-03T12:40:21;101117.25;;;28.52;32.47
64886;BME280;51514;52.206;5.114;2022-09-03T12:42:48;101121.41;;;28.55;31.62
64886;BME280;51514;52.206;5.114;2022-09-03T12:45:20;101115.03;;;28.54;32.70
64886;BME280;51514;52.206;5.114;2022-09-03T12:47:46;101127.28;;;28.63;32.87
64886;BME280;51514;52.206;5.114;2022-09-03T12:52:47;101118.91;;;28.53;33.47
64886;BME280;51514;52.206;5.114;2022-09-03T12:57:53;101121.66;;;28.48;32.24
64886;BME280;51514;52.206;5.114;2022-09-03T13:00:21;101118.63;;;28.50;32.48
64886;BME280;51514;52.206;5.114;2022-09-03T13:03:01;101114.19;;;28.54;33.02
64886;BME280;51514;52.206;5.114;2022-09-03T13:05:34;101130.84;;;28.54;33.06
64886;BME280;51514;52.206;5.114;2022-09-03T13:08:02;101125.56;;;28.57;33.18
64886;BME280;51514;52.206;5.114;2022-09-03T13:10:35;101126.66;;;28.56;33.44
64886;BME280;51514;52.206;5.114;2022-09-03T13:15:55;101118.06;;;28.53;33.06
64886;BME280;51514;52.206;5.114;2022-09-03T13:23:43;101119.47;;;28.55;31.07
64886;BME280;51514;52.206;5.114;2022-09-03T13:26:27;101120.59;;;28.54;33.01
64886;BME280;51514;52.206;5.114;2022-09-03T13:32:22;101120.59;;;28.54;32.21
64886;BME280;51514;52.206;5.114;2022-09-03T13:34:56;101116.09;;;28.48;33.03
64886;BME280;51514;52.206;5.114;2022-09-03T13:37:36;101123.31;;;28.44;34.06
64886;BME280;51514;52.206;5.114;2022-09-03T13:40:17;101114.69;;;28.46;33.29
64886;BME280;51514;52.206;5.114;2022-09-03T13:42:53;101104.75;;;28.50;35.17
64886;BME280;51514;52.206;5.114;2022-09-03T13:48:16;101111.44;;;28.59;33.92
64886;BME280;51514;52.206;5.114;2022-09-03T13:51:14;101109.19;;;28.51;33.54
64886;BME280;51514;52.206;5.114;2022-09-03T13:53:50;101108.34;;;28.50;34.28
64886;BME280;51514;52.206;5.114;2022-09-03T13:56:46;101105.59;;;28.55;35.60
64886;BME280;51514;52.206;5.114;2022-09-03T13:59:19;101101.16;;;28.59;36.29
64886;BME280;51514;52.206;5.114;2022-09-03T14:02:04;101107.81;;;28.58;34.42
64886;BME280;51514;52.206;5.114;2022-09-03T14:05:12;101107.22;;;28.46;34.28
64886;BME280;51514;52.206;5.114;2022-09-03T14:12:43;101103.63;;;28.51;34.90
64886;BME280;51514;52.206;5.114;2022-09-03T14:18:41;101103.06;;;28.44;33.83
64886;BME280;51514;52.206;5.114;2022-09-03T14:21:17;101109.44;;;28.44;33.71
64886;BME280;51514;52.206;5.114;2022-09-03T14:23:50;101112.75;;;28.46;34.93
64886;BME280;51514;52.206;5.114;2022-09-03T14:26:33;101107.50;;;28.50;34.93
64886;BME280;51514;52.206;5.114;2022-09-03T14:29:07;101106.16;;;28.52;35.12
64886;BME280;51514;52.206;5.114;2022-09-03T14:40:30;101110.25;;;28.40;35.40
64886;BME280;51514;52.206;5.114;2022-09-03T14:48:57;101100.56;;;28.42;35.83
64886;BME280;51514;52.206;5.114;2022-09-03T14:57:20;101099.69;;;28.31;34.13
64886;BME280;51514;52.206;5.114;2022-09-03T15:05:45;101111.25;;;28.23;34.01
64886;BME280;51514;52.206;5.114;2022-09-03T15:08:26;101110.72;;;28.21;33.17
64886;BME280;51514;52.206;5.114;2022-09-03T15:10:59;101108.47;;;28.18;32.96
64886;BME280;51514;52.206;5.114;2022-09-03T15:13:33;101109.25;;;28.14;33.09
64886;BME280;51514;52.206;5.114;2022-09-03T15:18:37;101101.19;;;28.07;31.63
64886;BME280;51514;52.206;5.114;2022-09-03T15:38:02;101115.75;;;27.87;34.85
64886;BME280;51514;52.206;5.114;2022-09-03T15:43:24;101119.03;;;27.79;32.19
64886;BME280;51514;52.206;5.114;2022-09-03T15:45:54;101118.97;;;27.74;33.01
64886;BME280;51514;52.206;5.114;2022-09-03T15:48:38;101123.94;;;27.72;33.52